createdAt,value
2018-09-17T05:08:28.811Z,92.27
2018-09-17T05:26:14.897Z,92.27
2018-09-17T05:27:17.739Z,91.61
2018-09-17T05:28:11.911Z,91.99
2018-09-17T05:30:13.125Z,92.08
2018-09-17T05:31:12.441Z,91.80
2018-09-17T05:32:12.017Z,91.71
2018-09-17T05:33:17.114Z,92.27
2018-09-17T05:37:09.675Z,92.18
2018-09-17T05:40:18.054Z,91.61
2018-09-17T05:42:07.408Z,91.61
2018-09-17T05:43:06.969Z,91.13
2018-09-17T05:44:06.751Z,91.61
2018-09-17T05:47:23.416Z,91.52
2018-09-17T05:48:24.844Z,91.71
2018-09-17T05:49:49.168Z,91.99
2018-09-17T05:50:40.898Z,91.61
2018-09-17T05:51:24.331Z,92.46
2018-09-17T05:52:22.983Z,92.37
2018-09-17T05:53:24.139Z,92.66
2018-09-17T05:54:26.315Z,92.56
2018-09-17T05:55:24.238Z,92.75
2018-09-17T05:56:24.190Z,93.23
2018-09-17T05:57:24.402Z,93.41
2018-09-17T05:58:21.926Z,93.23
2018-09-17T05:59:21.988Z,93.32
2018-09-17T06:00:22.189Z,93.41
2018-09-17T06:01:22.168Z,93.32
2018-09-17T06:02:22.401Z,93.32
2018-09-17T06:03:22.627Z,93.32
2018-09-17T06:04:22.766Z,93.32
2018-09-17T06:05:22.925Z,93.32
2018-09-17T06:06:23.195Z,93.41
2018-09-17T06:07:23.291Z,93.37
2018-09-17T06:08:23.436Z,92.99
2018-09-17T06:09:23.594Z,93.18
2018-09-17T06:10:23.729Z,92.99
2018-09-17T06:11:24.098Z,92.32
2018-09-17T06:12:24.162Z,93.18
2018-09-17T06:13:24.236Z,92.80
2018-09-17T06:14:24.490Z,92.80
2018-09-17T06:15:24.753Z,92.51
2018-09-17T06:16:24.853Z,92.46
2018-09-17T06:17:25.072Z,92.46
2018-09-17T06:18:25.216Z,92.65
2018-09-17T06:19:25.428Z,92.46
2018-09-17T06:20:25.674Z,92.65
2018-09-17T06:21:25.867Z,93.13
2018-09-17T06:22:26.083Z,92.84
2018-09-17T06:23:26.321Z,92.65
2018-09-17T06:24:26.384Z,92.75
2018-09-17T06:25:28.633Z,92.22
2018-09-17T06:26:27.278Z,91.94
2018-09-17T06:27:44.454Z,91.75
2018-09-17T06:28:32.811Z,91.37
2018-09-17T06:29:32.594Z,90.99
2018-09-17T06:30:30.213Z,91.17
2018-09-17T06:31:30.777Z,91.17
2018-09-17T06:32:30.430Z,90.70
2018-09-17T06:33:30.853Z,90.70
2018-09-17T06:34:28.136Z,89.98
2018-09-17T06:35:28.131Z,90.08
2018-09-17T06:36:28.235Z,89.32
2018-09-17T06:37:28.360Z,89.61
2018-09-17T06:38:28.542Z,89.41
2018-09-17T06:39:28.731Z,89.32
2018-09-17T06:40:28.947Z,88.79
2018-09-17T06:41:29.279Z,87.84
2018-09-17T06:42:29.342Z,87.84
2018-09-17T06:43:29.577Z,87.93
2018-09-17T06:44:29.739Z,87.55
2018-09-17T06:45:29.865Z,87.17
2018-09-17T06:48:14.262Z,86.74
2018-09-17T06:49:24.470Z,86.83
2018-09-17T06:50:15.571Z,87.02
2018-09-17T06:51:15.712Z,86.93
2018-09-17T06:52:16.451Z,87.02
2018-09-17T06:53:16.621Z,86.45
2018-09-17T06:56:32.275Z,85.93
2018-09-17T06:57:33.364Z,85.93
2018-09-17T06:58:31.882Z,86.40
2018-09-17T06:59:31.688Z,85.73
2018-09-17T07:00:31.634Z,85.54
2018-09-17T07:01:31.777Z,85.01
2018-09-17T07:02:32.062Z,85.21
2018-09-17T07:03:32.179Z,84.63
2018-09-17T07:04:33.387Z,84.10
2018-09-17T07:05:32.558Z,83.72
2018-09-17T07:06:32.781Z,82.29
2018-09-17T07:07:32.893Z,81.95
2018-09-17T07:08:33.007Z,81.09
2018-09-17T07:09:33.479Z,80.04
2018-09-17T07:10:33.626Z,79.75
2018-09-17T07:11:33.871Z,80.13
2018-09-17T07:12:34.060Z,80.04
2018-09-17T07:13:34.365Z,80.22
2018-09-17T07:14:34.377Z,80.17
2018-09-17T07:15:34.544Z,80.46
2018-09-17T07:16:34.729Z,79.85
2018-09-17T07:17:34.792Z,79.27
2018-09-17T07:18:35.208Z,79.56
2018-09-17T07:19:35.310Z,79.36
2018-09-17T07:20:35.456Z,79.02
2018-09-17T07:22:48.689Z,78.93
2018-09-17T07:23:40.677Z,78.55
2018-09-17T07:24:38.220Z,78.74
2018-09-17T07:25:53.894Z,78.07
2018-09-17T07:26:39.055Z,78.16
2018-09-17T07:27:40.282Z,77.72
2018-09-17T07:28:43.322Z,78.01
2018-09-17T07:29:41.957Z,77.44
2018-09-17T07:30:39.900Z,77.06
2018-09-17T07:31:39.334Z,76.86
2018-09-17T07:32:37.995Z,76.57
2018-09-17T07:33:38.294Z,76.81
2018-09-17T07:35:39.223Z,76.67
2018-09-17T07:36:38.815Z,76.90
2018-09-17T07:37:38.800Z,76.71
2018-09-17T07:38:39.075Z,76.14
2018-09-17T07:39:40.084Z,75.37
2018-09-17T07:40:39.770Z,74.93
2018-09-17T07:41:39.594Z,74.65
2018-09-17T07:42:39.575Z,75.02
2018-09-17T07:43:39.945Z,74.84
2018-09-17T07:44:40.141Z,74.84
2018-09-17T07:45:40.719Z,74.45
2018-09-17T07:46:40.761Z,74.55
2018-09-17T07:48:41.346Z,73.24
2018-09-17T07:49:41.175Z,73.34
2018-09-17T07:50:40.819Z,72.96
2018-09-17T07:51:41.136Z,72.38
2018-09-17T07:52:41.268Z,72.52
2018-09-17T07:53:43.371Z,72.23
2018-09-17T07:54:43.256Z,72.32
2018-09-17T07:55:41.587Z,71.75
2018-09-17T07:56:41.835Z,71.94
2018-09-17T07:57:42.848Z,70.98
2018-09-17T07:58:42.551Z,70.73
2018-09-17T07:59:42.514Z,70.54
2018-09-17T08:00:42.888Z,70.54
2018-09-17T08:01:43.432Z,70.15
2018-09-17T08:02:43.149Z,70.19
2018-09-17T08:03:43.278Z,69.81
2018-09-17T08:04:43.398Z,69.23
2018-09-17T08:05:46.426Z,69.81
2018-09-17T08:06:44.159Z,69.62
2018-09-17T08:07:43.923Z,69.36
2018-09-17T08:08:44.079Z,69.17
2018-09-17T08:09:44.262Z,67.44
2018-09-17T08:10:46.312Z,66.96
2018-09-17T08:11:44.563Z,65.52
2018-09-17T08:12:44.650Z,65.43
2018-09-17T08:13:45.059Z,65.43
2018-09-17T08:14:45.501Z,66.39
2018-09-17T08:15:45.188Z,66.13
2018-09-17T08:16:45.685Z,66.33
2018-09-17T08:17:45.653Z,65.27
2018-09-17T08:18:45.973Z,64.98
2018-09-17T08:19:46.697Z,65.56
2018-09-17T08:20:47.160Z,64.12
2018-09-17T08:21:46.707Z,64.12
2018-09-17T08:22:47.198Z,63.96
2018-09-17T08:23:48.341Z,63.48
2018-09-17T08:25:00.430Z,64.15
2018-09-17T08:25:58.414Z,64.47
2018-09-17T08:26:47.200Z,63.79
2018-09-17T08:27:47.665Z,63.32
2018-09-17T08:28:48.036Z,63.12
2018-09-17T08:29:48.173Z,62.93
2018-09-17T08:30:48.333Z,62.10
2018-09-17T08:31:49.031Z,61.71
2018-09-17T08:32:49.102Z,61.14
2018-09-17T08:33:49.178Z,61.43
2018-09-17T08:34:50.043Z,61.26
2018-09-17T08:35:49.939Z,60.88
2018-09-17T08:36:49.576Z,60.88
2018-09-17T08:37:50.236Z,60.01
2018-09-17T08:38:50.240Z,60.42
2018-09-17T08:39:50.041Z,58.70
2018-09-17T08:40:49.630Z,57.73
2018-09-17T08:41:49.889Z,56.58
2018-09-17T08:42:50.035Z,57.15
2018-09-17T08:43:50.255Z,57.76
2018-09-17T08:44:50.447Z,57.95
2018-09-17T08:47:54.869Z,58.34
2018-09-17T08:48:55.226Z,57.60
2018-09-17T08:49:55.573Z,56.92
2018-09-17T08:50:55.602Z,56.25
2018-09-17T08:51:55.633Z,56.44
2018-09-17T08:52:55.839Z,55.12
2018-09-17T08:53:56.594Z,55.02
2018-09-17T08:55:03.562Z,54.44
2018-09-17T08:55:56.284Z,54.44
2018-09-17T08:56:56.905Z,54.42
2018-09-17T08:57:59.186Z,54.25
2018-09-17T08:58:57.087Z,54.35
2018-09-17T08:59:58.187Z,53.58
2018-09-17T09:01:01.833Z,53.58
2018-09-17T09:01:59.958Z,54.06
2018-09-17T09:02:55.280Z,53.61
2018-09-17T09:03:55.554Z,53.41
2018-09-17T09:04:55.933Z,52.47
2018-09-17T09:11:14.728Z,49.63
2018-09-17T09:12:14.054Z,49.53
2018-09-17T09:13:14.068Z,49.37
2018-09-17T09:14:14.191Z,49.07
2018-09-17T09:15:15.716Z,48.11
2018-09-17T09:16:14.852Z,47.84
2018-09-17T09:17:15.076Z,47.19
2018-09-17T09:18:12.685Z,46.34
2018-09-17T09:19:12.715Z,45.86
2018-09-17T09:20:17.534Z,45.66
2018-09-17T09:21:12.985Z,44.91
2018-09-17T09:22:18.650Z,44.76
2018-09-17T09:23:14.997Z,42.92
2018-09-17T09:24:13.728Z,42.94
2018-09-17T09:25:14.273Z,41.43
2018-09-17T09:26:13.951Z,39.92
2018-09-17T09:27:14.971Z,39.16
2018-09-17T09:28:14.486Z,38.77
2018-09-17T09:29:14.388Z,38.19
2018-09-17T09:30:16.295Z,38.19
2018-09-17T09:31:15.068Z,37.84
2018-09-17T09:40:08.766Z,33.46
2018-09-17T10:18:02.309Z,25.54
2018-09-17T10:25:41.541Z,24.68
2018-09-17T10:30:49.031Z,25.54
2018-09-17T10:33:35.695Z,25.74
2018-09-17T10:34:29.831Z,25.65
2018-09-17T13:09:34.547Z,21.19
2018-09-17T13:10:34.849Z,21.28
2018-09-17T13:11:39.165Z,21.28
2018-09-17T13:12:35.720Z,21.46
2018-09-17T13:42:38.271Z,21.53
2018-09-17T13:43:38.487Z,21.73
2018-09-17T13:44:37.275Z,20.65
2018-09-17T13:45:37.363Z,21.26
2018-09-17T13:46:37.577Z,21.55
2018-09-17T13:47:37.721Z,20.54
2018-09-17T13:48:37.969Z,21.25
2018-09-17T13:49:38.137Z,21.54
2018-09-17T13:50:38.306Z,20.27
2018-09-17T13:51:38.450Z,19.79
2018-09-17T13:52:38.577Z,19.69
2018-09-17T13:53:38.851Z,18.90
2018-09-17T13:54:38.897Z,19.58
2018-09-17T13:55:39.137Z,19.40
2018-09-17T13:56:39.338Z,19.90
2018-09-17T13:57:39.535Z,19.59
2018-09-17T13:58:39.690Z,20.09
2018-09-17T13:59:41.325Z,20.07
2018-09-17T14:00:40.423Z,19.67
2018-09-17T14:01:41.027Z,19.76
2018-09-17T14:02:41.181Z,19.96
2018-09-17T14:03:40.918Z,20.64
2018-09-17T14:04:41.276Z,20.75
2018-09-17T14:05:42.949Z,21.62
2018-09-17T14:06:41.612Z,21.80
2018-09-17T14:07:41.647Z,21.31
2018-09-17T14:08:41.582Z,20.72
2018-09-17T14:09:41.839Z,21.01
2018-09-17T14:10:41.951Z,20.61
2018-09-17T14:11:42.164Z,20.42
2018-09-17T14:12:42.313Z,21.01
2018-09-17T14:13:42.501Z,20.42
2018-09-17T14:14:42.634Z,20.33
2018-09-17T14:15:42.920Z,20.83
2018-09-17T14:16:43.036Z,21.22
2018-09-17T14:17:43.303Z,21.22
2018-09-17T14:18:43.455Z,20.42
2018-09-17T14:19:43.936Z,21.01
2018-09-17T14:20:44.950Z,20.62
2018-09-17T14:21:44.026Z,20.62
2018-09-17T14:22:44.551Z,21.01
2018-09-17T14:23:44.356Z,21.01
2018-09-17T14:24:44.721Z,21.40
2018-09-17T14:25:44.885Z,21.30
2018-09-17T14:26:44.999Z,20.80
2018-09-17T14:27:45.413Z,21.29
2018-09-17T14:28:45.576Z,21.00
2018-09-17T14:29:46.154Z,20.31
2018-09-17T14:30:47.322Z,20.61
2018-09-17T14:31:45.983Z,21.49
2018-09-17T14:32:47.317Z,21.39
2018-09-17T14:33:46.666Z,22.16
2018-09-17T14:34:46.955Z,22.27
2018-09-17T14:35:46.989Z,21.49
2018-09-17T14:36:47.787Z,21.49
2018-09-17T14:37:47.041Z,22.16
2018-09-17T14:38:47.597Z,21.76
2018-09-17T14:39:48.270Z,21.77
2018-09-17T14:40:48.446Z,21.19
2018-09-17T14:41:48.701Z,20.40
2018-09-17T14:42:47.886Z,19.92
2018-09-17T14:43:48.276Z,20.41
2018-09-17T14:44:48.373Z,20.69
2018-09-17T14:45:48.606Z,21.27
2018-09-17T14:46:49.049Z,21.26
2018-09-17T14:47:49.119Z,21.26
2018-09-17T14:48:49.121Z,21.45
2018-09-17T14:49:52.960Z,21.53
2018-09-17T14:50:50.412Z,21.63
2018-09-17T14:51:49.919Z,22.60
2018-09-17T14:52:50.275Z,22.50
2018-09-17T14:53:50.500Z,23.86
2018-09-17T14:54:50.461Z,23.94
2018-09-17T14:55:50.472Z,25.12
2018-09-17T14:56:50.851Z,25.12
2018-09-17T14:57:51.152Z,24.63
2018-09-17T14:58:51.689Z,25.12
2018-09-17T14:59:52.013Z,24.63
2018-09-17T15:00:51.329Z,24.13
2018-09-17T15:01:51.810Z,24.22
2018-09-17T15:02:51.645Z,24.81
2018-09-17T15:03:51.938Z,24.71
2018-09-17T15:04:52.227Z,24.41
2018-09-17T15:05:52.450Z,24.51
2018-09-17T15:06:52.401Z,24.61
2018-09-17T15:07:52.583Z,24.69
2018-09-17T15:08:52.746Z,25.37
2018-09-17T15:09:52.843Z,25.47
2018-09-17T15:10:53.000Z,24.60
2018-09-17T15:11:53.221Z,25.67
2018-09-17T15:12:53.501Z,25.86
2018-09-17T15:13:53.547Z,25.96
2018-09-17T15:14:53.853Z,25.08
2018-09-17T15:15:54.351Z,25.16
2018-09-17T15:16:54.584Z,26.04
2018-09-17T15:17:54.341Z,26.53
2018-09-17T15:18:54.553Z,26.24
2018-09-17T15:19:54.676Z,27.12
2018-09-17T15:20:54.725Z,26.63
2018-09-17T15:21:55.013Z,27.41
2018-09-17T15:22:55.114Z,26.73
2018-09-17T15:23:55.414Z,27.20
2018-09-17T15:24:55.546Z,27.41
2018-09-17T15:25:55.773Z,28.09
2018-09-17T15:26:55.861Z,27.51
2018-09-17T15:27:56.039Z,27.59
2018-09-17T15:28:56.242Z,27.98
2018-09-17T15:29:56.338Z,27.30
2018-09-17T15:30:56.563Z,27.69
2018-09-17T15:31:56.717Z,29.44
2018-09-17T15:32:56.869Z,31.59
2018-09-17T15:33:57.136Z,30.52
2018-09-17T15:34:57.291Z,30.70
2018-09-17T15:35:57.383Z,32.16
2018-09-17T15:36:57.653Z,29.44
2018-09-17T15:37:57.851Z,31.67
2018-09-17T15:39:07.586Z,33.62
2018-09-17T15:40:58.463Z,33.23
2018-09-17T15:41:58.599Z,33.23
2018-09-17T15:42:58.710Z,33.70
2018-09-17T15:43:58.922Z,35.36
2018-09-17T15:44:59.158Z,35.46
2018-09-17T15:45:59.303Z,35.05
2018-09-17T15:46:59.557Z,35.16
2018-09-17T15:47:59.629Z,34.09
2018-09-17T15:48:59.850Z,32.23
2018-09-17T15:49:59.965Z,32.52
2018-09-17T15:51:00.172Z,33.69
2018-09-17T15:52:00.243Z,33.69
2018-09-17T15:53:00.464Z,33.88
2018-09-17T15:54:00.583Z,33.78
2018-09-17T15:55:00.783Z,33.69
2018-09-17T15:56:01.258Z,34.17
2018-09-17T15:57:01.254Z,35.05
2018-09-17T15:58:01.277Z,35.81
2018-09-17T15:59:01.529Z,34.25
2018-09-17T16:00:01.656Z,35.23
2018-09-17T16:01:01.838Z,32.50
2018-09-17T16:02:01.990Z,29.88
2018-09-17T16:03:02.328Z,29.88
2018-09-17T16:04:02.423Z,33.58
2018-09-17T16:05:02.557Z,33.58
2018-09-17T16:06:02.750Z,32.50
2018-09-17T16:07:04.145Z,32.21
2018-09-17T16:08:05.924Z,34.24
2018-09-17T16:09:04.215Z,34.72
2018-09-17T16:10:07.053Z,34.92
2018-09-17T16:11:03.857Z,33.95
2018-09-17T16:13:08.278Z,33.56
2018-09-17T16:15:04.135Z,31.98
2018-09-17T16:16:04.375Z,32.10
2018-09-17T16:17:04.639Z,31.21
2018-09-17T16:18:04.688Z,31.01
2018-09-17T16:19:04.973Z,34.22
2018-09-17T16:20:05.154Z,36.16
2018-09-17T16:21:05.271Z,37.04
2018-09-17T16:22:05.453Z,38.29
2018-09-17T16:23:05.677Z,37.90
2018-09-17T16:24:05.713Z,36.93
2018-09-17T16:25:05.927Z,38.75
2018-09-17T16:26:06.143Z,39.04
2018-09-17T16:27:06.490Z,39.34
2018-09-17T16:28:06.581Z,38.17
2018-09-17T16:29:06.820Z,37.86
2018-09-17T16:30:06.891Z,38.06
2018-09-17T16:33:13.745Z,38.06
2018-09-17T16:34:13.593Z,38.44
2018-09-17T16:35:11.006Z,39.41
2018-09-17T16:36:11.451Z,39.11
2018-09-17T16:37:11.441Z,39.11
2018-09-17T16:38:11.647Z,39.39
2018-09-17T16:39:11.744Z,40.26
2018-09-17T16:40:11.983Z,41.24
2018-09-17T16:41:12.043Z,41.31
2018-09-17T16:42:12.214Z,38.04
2018-09-17T16:43:12.476Z,39.57
2018-09-17T16:44:12.799Z,40.15
2018-09-17T16:45:13.397Z,39.67
2018-09-17T16:47:13.275Z,40.91
2018-09-17T16:48:13.357Z,41.00
2018-09-17T16:49:13.649Z,40.71
2018-09-17T16:50:13.696Z,41.00
2018-09-17T16:51:13.913Z,41.20
2018-09-17T16:52:14.120Z,40.71
2018-09-17T16:56:21.051Z,41.47
2018-09-17T17:17:36.162Z,42.35
2018-09-17T17:22:01.411Z,43.68
2018-09-17T17:24:48.404Z,44.63
2018-09-17T17:25:46.323Z,45.62
2018-09-17T17:26:44.399Z,45.21
2018-09-17T17:27:43.952Z,45.40
2018-09-17T17:31:52.691Z,47.02
2018-09-17T17:32:52.035Z,47.41
2018-09-17T17:33:52.676Z,47.70
2018-09-17T17:34:52.686Z,47.19
2018-09-17T17:35:53.507Z,46.90
2018-09-17T17:36:55.019Z,47.38
2018-09-17T17:38:44.532Z,47.77
2018-09-17T17:40:33.080Z,47.55
2018-09-17T17:41:27.125Z,47.55
2018-09-17T17:42:26.338Z,48.71
2018-09-17T17:44:28.145Z,48.90
2018-09-17T17:45:27.862Z,48.81
2018-09-17T17:46:27.223Z,49.00
2018-09-17T17:47:28.268Z,48.90
2018-09-17T17:49:27.684Z,48.79
2018-09-17T17:50:28.941Z,48.88
2018-09-17T17:51:30.875Z,48.69
2018-09-17T17:52:33.307Z,49.07
2018-09-17T17:53:31.838Z,49.55
2018-09-17T17:56:28.645Z,51.10
2018-09-17T17:57:28.777Z,51.07
2018-09-17T17:58:28.922Z,50.11
2018-09-17T17:59:31.171Z,50.11
2018-09-17T18:00:31.262Z,50.30
2018-09-17T18:02:56.014Z,50.30
2018-09-17T18:03:58.942Z,51.56
2018-09-17T18:04:56.842Z,50.98
2018-09-17T18:05:57.468Z,50.85
2018-09-17T18:06:57.817Z,51.24
2018-09-17T18:07:57.216Z,51.24
2018-09-17T18:08:57.574Z,51.34
2018-09-17T18:09:58.231Z,51.43
2018-09-17T18:10:59.871Z,51.43
2018-09-17T18:12:00.262Z,51.92
2018-09-17T18:13:23.836Z,52.30
2018-09-17T18:15:11.931Z,52.01
2018-09-17T18:16:02.318Z,52.40
2018-09-17T18:19:08.708Z,52.47
2018-09-17T18:27:54.628Z,53.50
2018-09-17T18:28:47.283Z,53.88
2018-09-17T18:32:17.744Z,54.17
2018-09-17T19:23:13.060Z,59.51
2018-09-17T19:24:14.936Z,60.28
2018-09-17T19:25:18.285Z,59.67
2018-09-17T19:27:15.424Z,59.48
2018-09-17T19:28:20.405Z,60.44
2018-09-17T19:29:15.739Z,59.86
2018-09-17T19:31:13.323Z,59.96
2018-09-17T19:35:47.343Z,60.63
2018-09-17T19:44:11.851Z,61.18
2018-09-17T19:45:13.339Z,61.08
2018-09-17T21:04:10.518Z,68.68
2018-09-17T21:23:28.412Z,69.64
2018-09-17T21:27:34.445Z,69.35
2018-09-17T21:41:59.399Z,70.56
2018-09-17T21:42:47.186Z,70.46
2018-09-17T21:49:21.317Z,71.13
